Känerkinden
Datum - Zeit
TemperaturTaupunktFeuchteSolar Wind aus Richtung WindböenLuftdruck (QFF)RegenRegenstärkeTrend
10.05.2026 - 00.00Uhr13.8 °C8.8 °C72 %0.0 W/m²0.0 km/hWest-SW0.0 km/h1011.3 hPa0.0 mm0.0 mm/hwechselhaft
10.05.2026 - 00.05Uhr13.8 °C8.8 °C72 %0.0 W/m²1.8 km/hWest-SW3.2 km/h1011.2 hPa0.0 mm0.0 mm/hwechselhaft
10.05.2026 - 00.10Uhr13.7 °C8.7 °C72 %0.0 W/m²0.5 km/hWest-SW1.4 km/h1011.2 hPa0.0 mm0.0 mm/hwechselhaft
10.05.2026 - 00.15Uhr13.6 °C8.5 °C72 %0.0 W/m²0.2 km/hWest-SW1.4 km/h1011.2 hPa0.0 mm0.0 mm/hwechselhaft
10.05.2026 - 00.20Uhr13.5 °C8.6 °C72 %0.0 W/m²0.0 km/hWest-SW0.0 km/h1011.1 hPa0.0 mm0.0 mm/hwechselhaft
10.05.2026 - 00.25Uhr13.3 °C8.6 °C73 %0.0 W/m²0.0 km/hWest-SW0.0 km/h1011.1 hPa0.0 mm0.0 mm/hwechselhaft
10.05.2026 - 00.30Uhr13.2 °C8.5 °C73 %0.0 W/m²0.0 km/hWest-SW0.0 km/h1011.0 hPa0.0 mm0.0 mm/hwechselhaft
10.05.2026 - 00.35Uhr13.1 °C8.4 °C73 %0.0 W/m²1.6 km/hWest-SW3.2 km/h1011.0 hPa0.0 mm0.0 mm/hwechselhaft
10.05.2026 - 00.40Uhr13.0 °C8.4 °C73 %0.0 W/m²0.7 km/hWest-SW3.2 km/h1011.0 hPa0.0 mm0.0 mm/hwechselhaft
10.05.2026 - 00.45Uhr12.9 °C8.2 °C73 %0.0 W/m²0.0 km/hWest-SW0.0 km/h1010.9 hPa0.0 mm0.0 mm/hwechselhaft
10.05.2026 - 00.50Uhr12.8 °C8.1 °C73 %0.0 W/m²0.0 km/hWest-SW0.0 km/h1010.9 hPa0.0 mm0.0 mm/hwechselhaft
10.05.2026 - 00.55Uhr12.7 °C8.1 °C73 %0.0 W/m²0.0 km/hWest-SW0.0 km/h1010.9 hPa0.0 mm0.0 mm/hwechselhaft
10.05.2026 - 01.00Uhr12.6 °C8.1 °C74 %0.0 W/m²0.0 km/hWest-SW0.0 km/h1010.9 hPa0.0 mm0.0 mm/hwechselhaft
10.05.2026 - 01.05Uhr12.5 °C8.0 °C74 %0.0 W/m²0.0 km/hWest-SW0.0 km/h1010.8 hPa0.0 mm0.0 mm/hwechselhaft
10.05.2026 - 01.10Uhr12.3 °C7.7 °C73 %0.0 W/m²0.0 km/hWest-SW0.0 km/h1010.8 hPa0.0 mm0.0 mm/hwechselhaft
10.05.2026 - 01.15Uhr12.2 °C7.5 °C73 %0.0 W/m²0.0 km/hWest-SW0.0 km/h1010.8 hPa0.0 mm0.0 mm/hwechselhaft
10.05.2026 - 01.20Uhr12.1 °C7.5 °C73 %0.0 W/m²0.0 km/hWest-SW0.0 km/h1010.8 hPa0.0 mm0.0 mm/hwechselhaft
10.05.2026 - 01.25Uhr12.0 °C7.5 °C74 %0.0 W/m²1.6 km/hWest-SW3.2 km/h1010.7 hPa0.0 mm0.0 mm/hwechselhaft
10.05.2026 - 01.30Uhr11.8 °C7.5 °C75 %0.0 W/m²0.5 km/hWest-SW1.4 km/h1010.7 hPa0.0 mm0.0 mm/hwechselhaft
10.05.2026 - 01.35Uhr11.8 °C7.5 °C75 %0.0 W/m²0.5 km/hWest-SW1.4 km/h1010.7 hPa0.0 mm0.0 mm/hwechselhaft
10.05.2026 - 01.40Uhr11.7 °C7.5 °C75 %0.0 W/m²1.3 km/hWest-SW3.2 km/h1010.7 hPa0.0 mm0.0 mm/hwechselhaft
10.05.2026 - 01.45Uhr11.7 °C7.6 °C76 %0.0 W/m²0.0 km/hWest-SW0.0 km/h1010.6 hPa0.0 mm0.0 mm/hwechselhaft
10.05.2026 - 01.50Uhr11.7 °C7.6 °C76 %0.0 W/m²0.2 km/hWest-SW1.4 km/h1010.6 hPa0.0 mm0.0 mm/hwechselhaft
10.05.2026 - 01.55Uhr11.7 °C7.6 °C76 %0.0 W/m²0.0 km/hWest-SW0.0 km/h1010.5 hPa0.0 mm0.0 mm/hwechselhaft
10.05.2026 - 02.00Uhr11.7 °C7.5 °C75 %0.0 W/m²0.5 km/hWest-SW1.4 km/h1010.5 hPa0.0 mm0.0 mm/hwechselhaft
10.05.2026 - 02.05Uhr11.6 °C7.3 °C75 %0.0 W/m²0.3 km/hWest-SW1.4 km/h1010.5 hPa0.0 mm0.0 mm/hwechselhaft
10.05.2026 - 02.10Uhr11.6 °C7.4 °C75 %0.0 W/m²0.3 km/hWest-SW1.4 km/h1010.5 hPa0.0 mm0.0 mm/hwechselhaft
10.05.2026 - 02.15Uhr11.5 °C7.4 °C76 %0.0 W/m²1.2 km/hWest-SW3.2 km/h1010.5 hPa0.0 mm0.0 mm/hwechselhaft
10.05.2026 - 02.20Uhr11.4 °C7.4 °C76 %0.0 W/m²0.0 km/hWest-SW0.0 km/h1010.4 hPa0.0 mm0.0 mm/hwechselhaft
10.05.2026 - 02.25Uhr11.4 °C7.5 °C77 %0.0 W/m²1.1 km/hWest-SW3.2 km/h1010.3 hPa0.0 mm0.0 mm/hwechselhaft
10.05.2026 - 02.30Uhr11.4 °C7.7 °C78 %0.0 W/m²1.6 km/hWest-SW3.2 km/h1010.3 hPa0.0 mm0.0 mm/hwechselhaft
10.05.2026 - 02.35Uhr11.4 °C7.7 °C78 %0.0 W/m²0.2 km/hWest-SW1.4 km/h1010.3 hPa0.0 mm0.0 mm/hwechselhaft
10.05.2026 - 02.40Uhr11.4 °C7.7 °C78 %0.0 W/m²0.5 km/hWest-SW3.2 km/h1010.2 hPa0.0 mm0.0 mm/hwechselhaft
10.05.2026 - 02.45Uhr11.4 °C7.8 °C78 %0.0 W/m²0.0 km/hWest-SW0.0 km/h1010.1 hPa0.0 mm0.0 mm/hwechselhaft
10.05.2026 - 02.50Uhr11.5 °C7.8 °C78 %0.0 W/m²0.0 km/hWest-SW0.0 km/h1010.1 hPa0.0 mm0.0 mm/hwechselhaft
10.05.2026 - 02.55Uhr11.5 °C7.8 °C78 %0.0 W/m²0.7 km/hWest-SW3.2 km/h1010.1 hPa0.0 mm0.0 mm/hwechselhaft
10.05.2026 - 03.00Uhr11.6 °C7.9 °C78 %0.0 W/m²0.0 km/hWest-SW0.0 km/h1010.2 hPa0.0 mm0.0 mm/hwechselhaft
10.05.2026 - 03.05Uhr11.6 °C7.9 °C78 %0.0 W/m²0.0 km/hWest-SW0.0 km/h1010.1 hPa0.0 mm0.0 mm/hwechselhaft
10.05.2026 - 03.10Uhr11.6 °C7.9 °C78 %0.0 W/m²0.0 km/hWest-SW0.0 km/h1010.1 hPa0.0 mm0.0 mm/hwechselhaft
10.05.2026 - 03.15Uhr11.6 °C7.9 °C78 %0.0 W/m²0.0 km/hWest-SW0.0 km/h1010.1 hPa0.0 mm0.0 mm/hwechselhaft
10.05.2026 - 03.20Uhr11.6 °C8.1 °C79 %0.0 W/m²0.8 km/hWest-SW3.2 km/h1010.1 hPa0.0 mm0.0 mm/hwechselhaft
10.05.2026 - 03.25Uhr11.6 °C7.9 °C78 %0.0 W/m²0.2 km/hWest-SW1.4 km/h1010.0 hPa0.0 mm0.0 mm/hwechselhaft
10.05.2026 - 03.30Uhr11.7 °C8.0 °C78 %0.0 W/m²0.0 km/hWest-SW0.0 km/h1010.0 hPa0.0 mm0.0 mm/hwechselhaft
10.05.2026 - 03.35Uhr11.7 °C8.0 °C78 %0.0 W/m²0.0 km/hWest-SW0.0 km/h1009.9 hPa0.0 mm0.0 mm/hwechselhaft
10.05.2026 - 03.40Uhr11.7 °C8.0 °C78 %0.0 W/m²0.4 km/hWest-SW1.4 km/h1009.8 hPa0.0 mm0.0 mm/hwechselhaft
10.05.2026 - 03.45Uhr11.7 °C8.0 °C78 %0.0 W/m²2.7 km/hWest-SW4.7 km/h1009.8 hPa0.0 mm0.0 mm/hwechselhaft
10.05.2026 - 03.50Uhr11.7 °C8.0 °C78 %0.0 W/m²1.1 km/hWest-SW3.2 km/h1009.8 hPa0.0 mm0.0 mm/hwechselhaft
10.05.2026 - 03.55Uhr11.7 °C8.0 °C78 %0.0 W/m²0.0 km/hWest-SW0.0 km/h1009.8 hPa0.0 mm0.0 mm/hwechselhaft
10.05.2026 - 04.00Uhr11.7 °C8.0 °C78 %0.0 W/m²0.0 km/hWest-SW0.0 km/h1009.8 hPa0.0 mm0.0 mm/hwechselhaft
10.05.2026 - 04.05Uhr11.7 °C8.0 °C78 %0.0 W/m²0.0 km/hWest-SW0.0 km/h1009.8 hPa0.0 mm0.0 mm/hwechselhaft
10.05.2026 - 04.10Uhr11.7 °C8.0 °C78 %0.0 W/m²0.0 km/hWest-SW0.0 km/h1009.8 hPa0.0 mm0.0 mm/hwechselhaft
10.05.2026 - 04.15Uhr11.7 °C8.0 °C78 %0.0 W/m²0.0 km/hNord-NO0.0 km/h1009.8 hPa0.0 mm0.0 mm/hwechselhaft
10.05.2026 - 04.20Uhr11.7 °C8.0 °C78 %0.0 W/m²0.0 km/hNord-NO0.0 km/h1009.8 hPa0.0 mm0.0 mm/hwechselhaft
10.05.2026 - 04.25Uhr11.7 °C8.0 °C78 %0.0 W/m²0.0 km/hNord-NO0.0 km/h1009.7 hPa0.0 mm0.0 mm/hwechselhaft
10.05.2026 - 04.30Uhr11.8 °C8.1 °C78 %0.0 W/m²0.0 km/hNord-NO0.0 km/h1009.7 hPa0.0 mm0.0 mm/hwechselhaft
10.05.2026 - 04.35Uhr11.9 °C8.2 °C78 %0.0 W/m²2.1 km/hOsten6.5 km/h1009.7 hPa0.0 mm0.0 mm/hwechselhaft
10.05.2026 - 04.40Uhr11.9 °C8.2 °C78 %0.0 W/m²2.0 km/hOst-SO6.5 km/h1009.7 hPa0.0 mm0.0 mm/hwechselhaft
10.05.2026 - 04.45Uhr12.0 °C8.3 °C78 %0.0 W/m²1.8 km/hSüdosten6.5 km/h1009.6 hPa0.0 mm0.0 mm/hwechselhaft
10.05.2026 - 04.50Uhr12.1 °C8.4 °C78 %0.0 W/m²2.0 km/hSüdosten6.5 km/h1009.5 hPa0.0 mm0.0 mm/hwechselhaft
10.05.2026 - 04.55Uhr12.1 °C8.4 °C78 %0.0 W/m²1.2 km/hSüdosten3.2 km/h1009.4 hPa0.0 mm0.0 mm/hwechselhaft
10.05.2026 - 05.00Uhr12.1 °C8.3 °C78 %0.0 W/m²3.0 km/hOsten6.5 km/h1009.4 hPa0.0 mm0.0 mm/hwechselhaft
10.05.2026 - 05.05Uhr12.1 °C8.2 °C77 %0.0 W/m²3.1 km/hOsten6.5 km/h1009.3 hPa0.0 mm0.0 mm/hwechselhaft
10.05.2026 - 05.10Uhr12.1 °C8.2 °C77 %0.0 W/m²0.8 km/hOsten3.2 km/h1009.3 hPa0.0 mm0.0 mm/hwechselhaft
10.05.2026 - 05.15Uhr12.1 °C8.2 °C77 %0.0 W/m²0.0 km/hOsten0.0 km/h1009.2 hPa0.0 mm0.0 mm/hwechselhaft
10.05.2026 - 05.20Uhr12.2 °C8.3 °C77 %0.0 W/m²0.0 km/hOsten0.0 km/h1009.2 hPa0.0 mm0.0 mm/hwechselhaft
10.05.2026 - 05.25Uhr12.2 °C8.2 °C77 %0.0 W/m²0.0 km/hOsten0.0 km/h1009.1 hPa0.0 mm0.0 mm/hwechselhaft
10.05.2026 - 05.30Uhr12.1 °C8.2 °C77 %0.0 W/m²0.0 km/hOsten0.0 km/h1009.1 hPa0.0 mm0.0 mm/hwechselhaft
10.05.2026 - 05.35Uhr12.1 °C8.2 °C77 %0.0 W/m²0.0 km/hOsten0.0 km/h1009.1 hPa0.0 mm0.0 mm/hwechselhaft
10.05.2026 - 05.40Uhr12.1 °C8.2 °C77 %0.0 W/m²0.0 km/hOsten0.0 km/h1009.0 hPa0.0 mm0.0 mm/hwechselhaft
10.05.2026 - 05.45Uhr12.1 °C8.2 °C77 %7.0 W/m²0.0 km/hOsten0.0 km/h1009.0 hPa0.0 mm0.0 mm/hwechselhaft
10.05.2026 - 05.50Uhr11.9 °C7.9 °C76 %9.0 W/m²0.0 km/hOsten0.0 km/h1008.9 hPa0.0 mm0.0 mm/hwechselhaft
10.05.2026 - 05.55Uhr11.9 °C7.8 °C76 %11.0 W/m²1.8 km/hOst-SO6.5 km/h1008.9 hPa0.0 mm0.0 mm/hwechselhaft
10.05.2026 - 06.00Uhr12.0 °C7.9 °C76 %12.0 W/m²1.8 km/hSüdosten3.2 km/h1008.9 hPa0.0 mm0.0 mm/hwechselhaft
10.05.2026 - 06.05Uhr12.1 °C8.0 °C76 %14.0 W/m²0.0 km/hSüdosten0.0 km/h1008.8 hPa0.0 mm0.0 mm/hRegen
10.05.2026 - 06.10Uhr12.1 °C8.0 °C76 %19.0 W/m²0.0 km/hSüdosten0.0 km/h1008.8 hPa0.0 mm0.0 mm/hRegen
10.05.2026 - 06.15Uhr12.1 °C8.2 °C77 %21.0 W/m²2.0 km/hNordosten3.2 km/h1008.8 hPa0.0 mm0.0 mm/hRegen
10.05.2026 - 06.20Uhr12.2 °C8.2 °C77 %25.0 W/m²1.5 km/hNordosten3.2 km/h1008.8 hPa0.0 mm0.0 mm/hRegen
10.05.2026 - 06.25Uhr12.2 °C8.3 °C77 %26.0 W/m²2.8 km/hWesten4.7 km/h1008.9 hPa0.0 mm0.0 mm/hRegen
10.05.2026 - 06.30Uhr12.2 °C8.3 °C77 %28.0 W/m²1.9 km/hWesten3.2 km/h1008.9 hPa0.0 mm0.0 mm/hRegen
10.05.2026 - 06.35Uhr12.2 °C8.4 °C77 %33.0 W/m²2.4 km/hWesten3.2 km/h1008.9 hPa0.0 mm0.0 mm/hRegen
10.05.2026 - 06.40Uhr12.2 °C8.5 °C78 %40.0 W/m²2.7 km/hWesten4.7 km/h1008.9 hPa0.0 mm0.0 mm/hRegen
10.05.2026 - 06.45Uhr12.2 °C8.5 °C78 %53.0 W/m²0.0 km/hWesten0.0 km/h1008.8 hPa0.0 mm0.0 mm/hRegen
10.05.2026 - 06.50Uhr12.2 °C8.5 °C78 %62.0 W/m²0.0 km/hWesten0.0 km/h1008.9 hPa0.0 mm0.0 mm/hRegen
10.05.2026 - 06.55Uhr12.2 °C8.5 °C78 %93.0 W/m²0.0 km/hWesten0.0 km/h1008.8 hPa0.0 mm0.0 mm/hRegen
10.05.2026 - 07.00Uhr12.2 °C8.5 °C78 %93.0 W/m²0.0 km/hWesten0.0 km/h1008.9 hPa0.0 mm0.0 mm/hRegen
10.05.2026 - 07.05Uhr12.3 °C8.6 °C78 %95.0 W/m²0.0 km/hWesten0.0 km/h1008.9 hPa0.0 mm0.0 mm/hRegen
10.05.2026 - 07.10Uhr12.4 °C8.9 °C79 %90.0 W/m²0.6 km/hWesten3.2 km/h1008.9 hPa0.0 mm0.0 mm/hRegen
10.05.2026 - 07.15Uhr12.6 °C8.6 °C76 %93.0 W/m²1.6 km/hSüd-SO6.5 km/h1008.9 hPa0.0 mm0.0 mm/hRegen
10.05.2026 - 07.20Uhr12.8 °C8.5 °C75 %105.0 W/m²1.5 km/hSüd-SO3.2 km/h1008.9 hPa0.0 mm0.0 mm/hRegen
10.05.2026 - 07.25Uhr13.0 °C8.9 °C76 %95.0 W/m²0.1 km/hSüd-SO1.4 km/h1008.8 hPa0.0 mm0.0 mm/hRegen
10.05.2026 - 07.30Uhr13.1 °C8.9 °C76 %98.0 W/m²0.0 km/hSüd-SO0.0 km/h1008.8 hPa0.0 mm0.0 mm/hRegen
10.05.2026 - 07.35Uhr13.3 °C8.9 °C75 %109.0 W/m²0.2 km/hSüd-SO1.4 km/h1008.8 hPa0.0 mm0.0 mm/hRegen
10.05.2026 - 07.40Uhr13.4 °C8.8 °C73 %139.0 W/m²0.0 km/hSüd-SO0.0 km/h1008.7 hPa0.0 mm0.0 mm/hRegen
10.05.2026 - 07.45Uhr13.5 °C8.6 °C72 %185.0 W/m²0.0 km/hSüd-SO0.0 km/h1008.7 hPa0.0 mm0.0 mm/hRegen
10.05.2026 - 07.50Uhr13.8 °C8.9 °C73 %214.0 W/m²0.0 km/hSüd-SO0.0 km/h1008.7 hPa0.0 mm0.0 mm/hRegen
10.05.2026 - 07.55Uhr13.9 °C8.8 °C72 %185.0 W/m²0.0 km/hSüd-SO0.0 km/h1008.7 hPa0.0 mm0.0 mm/hRegen
10.05.2026 - 08.00Uhr14.1 °C8.8 °C71 %146.0 W/m²1.7 km/hWest-NW3.2 km/h1008.7 hPa0.0 mm0.0 mm/hRegen
10.05.2026 - 08.05Uhr14.2 °C9.1 °C72 %176.0 W/m²1.6 km/hWest-NW4.7 km/h1008.7 hPa0.0 mm0.0 mm/hRegen
10.05.2026 - 08.10Uhr14.3 °C9.0 °C70 %207.0 W/m²1.5 km/hWest-NW3.2 km/h1008.6 hPa0.0 mm0.0 mm/hRegen
10.05.2026 - 08.15Uhr14.4 °C9.0 °C70 %237.0 W/m²0.5 km/hWest-NW1.4 km/h1008.6 hPa0.0 mm0.0 mm/hRegen
10.05.2026 - 08.20Uhr14.5 °C9.1 °C70 %239.0 W/m²1.4 km/hWest-NW4.7 km/h1008.6 hPa0.0 mm0.0 mm/hRegen
10.05.2026 - 08.25Uhr14.7 °C9.2 °C70 %243.0 W/m²1.4 km/hNord-NO3.2 km/h1008.6 hPa0.0 mm0.0 mm/hRegen
10.05.2026 - 08.30Uhr14.8 °C9.3 °C70 %251.0 W/m²1.3 km/hOsten3.2 km/h1008.6 hPa0.0 mm0.0 mm/hRegen
10.05.2026 - 08.35Uhr14.9 °C9.4 °C69 %253.0 W/m²2.0 km/hOsten4.7 km/h1008.6 hPa0.0 mm0.0 mm/hRegen
10.05.2026 - 08.40Uhr15.2 °C9.5 °C69 %236.0 W/m²2.4 km/hOsten6.5 km/h1008.6 hPa0.0 mm0.0 mm/hRegen
10.05.2026 - 08.45Uhr15.3 °C9.3 °C67 %236.0 W/m²1.1 km/hOsten3.2 km/h1008.5 hPa0.0 mm0.0 mm/hRegen
10.05.2026 - 08.50Uhr15.5 °C9.5 °C68 %357.0 W/m²1.7 km/hOst-NO4.7 km/h1008.5 hPa0.0 mm0.0 mm/hRegen
10.05.2026 - 08.55Uhr15.6 °C9.6 °C67 %381.0 W/m²2.8 km/hOst-NO6.5 km/h1008.5 hPa0.0 mm0.0 mm/hRegen
10.05.2026 - 09.00Uhr15.8 °C9.7 °C67 %468.0 W/m²3.9 km/hOsten9.7 km/h1008.4 hPa0.0 mm0.0 mm/hRegen
10.05.2026 - 09.05Uhr16.0 °C9.7 °C66 %352.0 W/m²2.2 km/hOst-SO6.5 km/h1008.4 hPa0.0 mm0.0 mm/hRegen
10.05.2026 - 09.10Uhr16.2 °C9.6 °C65 %545.0 W/m²3.6 km/hNord-NO6.5 km/h1008.5 hPa0.0 mm0.0 mm/hRegen
10.05.2026 - 09.15Uhr16.2 °C9.9 °C66 %520.0 W/m²4.4 km/hNordwesten6.5 km/h1008.6 hPa0.0 mm0.0 mm/hRegen
10.05.2026 - 09.20Uhr16.3 °C9.7 °C65 %302.0 W/m²3.8 km/hNord-NW7.9 km/h1008.7 hPa0.0 mm0.0 mm/hRegen
10.05.2026 - 09.25Uhr16.2 °C9.9 °C66 %274.0 W/m²3.1 km/hWest-NW7.9 km/h1008.7 hPa0.0 mm0.0 mm/hRegen
10.05.2026 - 09.30Uhr16.3 °C10.2 °C67 %276.0 W/m²6.9 km/hWesten9.7 km/h1008.7 hPa0.0 mm0.0 mm/hRegen
10.05.2026 - 09.35Uhr16.2 °C10.3 °C68 %248.0 W/m²6.8 km/hWesten9.7 km/h1008.8 hPa0.0 mm0.0 mm/hRegen
10.05.2026 - 09.40Uhr16.2 °C10.3 °C68 %258.0 W/m²4.9 km/hWesten9.7 km/h1008.8 hPa0.0 mm0.0 mm/hRegen
10.05.2026 - 09.45Uhr16.2 °C10.3 °C68 %278.0 W/m²6.1 km/hWest-SW9.7 km/h1008.9 hPa0.0 mm0.0 mm/hRegen
10.05.2026 - 09.50Uhr16.2 °C10.4 °C68 %343.0 W/m²6.9 km/hWesten9.7 km/h1008.8 hPa0.0 mm0.0 mm/hRegen
10.05.2026 - 09.55Uhr16.3 °C10.4 °C68 %343.0 W/m²6.1 km/hWesten9.7 km/h1008.7 hPa0.0 mm0.0 mm/hRegen
10.05.2026 - 10.00Uhr16.3 °C10.3 °C67 %352.0 W/m²4.8 km/hWest-NW7.9 km/h1008.6 hPa0.0 mm0.0 mm/hRegen
10.05.2026 - 10.05Uhr16.3 °C10.2 °C67 %489.0 W/m²2.5 km/hWest-NW4.7 km/h1008.6 hPa0.0 mm0.0 mm/hRegen
10.05.2026 - 10.10Uhr16.5 °C10.0 °C66 %508.0 W/m²4.1 km/hWest-SW6.5 km/h1008.6 hPa0.0 mm0.0 mm/hRegen
10.05.2026 - 10.15Uhr16.7 °C10.1 °C65 %359.0 W/m²5.0 km/hWest-SW7.9 km/h1008.6 hPa0.0 mm0.0 mm/hRegen
10.05.2026 - 10.20Uhr16.8 °C10.2 °C65 %357.0 W/m²6.7 km/hSüdwesten9.7 km/h1008.6 hPa0.0 mm0.0 mm/hRegen
10.05.2026 - 10.25Uhr16.8 °C10.2 °C65 %332.0 W/m²7.9 km/hWesten11.2 km/h1008.6 hPa0.0 mm0.0 mm/hRegen
10.05.2026 - 10.30Uhr16.9 °C10.2 °C65 %353.0 W/m²7.4 km/hWesten11.2 km/h1008.7 hPa0.0 mm0.0 mm/hRegen
10.05.2026 - 10.35Uhr16.9 °C10.4 °C66 %369.0 W/m²5.6 km/hWesten7.9 km/h1008.7 hPa0.0 mm0.0 mm/hRegen
10.05.2026 - 10.40Uhr17.0 °C10.3 °C64 %366.0 W/m²8.9 km/hWest-SW13.0 km/h1008.7 hPa0.0 mm0.0 mm/hRegen
10.05.2026 - 10.45Uhr17.1 °C10.1 °C64 %378.0 W/m²8.6 km/hWest-NW13.0 km/h1008.7 hPa0.0 mm0.0 mm/hRegen
10.05.2026 - 10.50Uhr17.0 °C10.1 °C64 %480.0 W/m²10.7 km/hWest-NW14.4 km/h1008.7 hPa0.0 mm0.0 mm/hRegen
10.05.2026 - 10.55Uhr16.9 °C10.1 °C64 %512.0 W/m²10.2 km/hNordwesten14.4 km/h1008.7 hPa0.0 mm0.0 mm/hRegen
10.05.2026 - 11.00Uhr17.0 °C9.8 °C63 %563.0 W/m²6.2 km/hWest-NW11.2 km/h1008.7 hPa0.0 mm0.0 mm/hRegen
10.05.2026 - 11.05Uhr17.2 °C10.3 °C64 %585.0 W/m²9.2 km/hNordwesten13.0 km/h1008.6 hPa0.0 mm0.0 mm/hbedeckt
10.05.2026 - 11.10Uhr17.3 °C10.7 °C65 %598.0 W/m²9.7 km/hWest-NW13.0 km/h1008.6 hPa0.0 mm0.0 mm/hbedeckt
10.05.2026 - 11.15Uhr17.4 °C10.9 °C65 %476.0 W/m²10.4 km/hNordwesten14.4 km/h1008.6 hPa0.0 mm0.0 mm/hbedeckt
10.05.2026 - 11.20Uhr17.6 °C11.0 °C65 %448.0 W/m²10.7 km/hWest-NW16.2 km/h1008.5 hPa0.0 mm0.0 mm/hbedeckt
10.05.2026 - 11.25Uhr17.7 °C10.9 °C65 %448.0 W/m²11.0 km/hWest-NW17.6 km/h1008.5 hPa0.0 mm0.0 mm/hbedeckt
10.05.2026 - 11.30Uhr17.6 °C10.8 °C64 %436.0 W/m²13.9 km/hNordwesten17.6 km/h1008.5 hPa0.0 mm0.0 mm/hbedeckt
10.05.2026 - 11.35Uhr17.6 °C10.9 °C65 %441.0 W/m²11.7 km/hWest-NW17.6 km/h1008.5 hPa0.0 mm0.0 mm/hbedeckt
10.05.2026 - 11.40Uhr17.7 °C10.8 °C64 %489.0 W/m²11.7 km/hWesten17.6 km/h1008.5 hPa0.0 mm0.0 mm/hbedeckt
10.05.2026 - 11.45Uhr17.7 °C10.6 °C63 %434.0 W/m²9.0 km/hWest-NW13.0 km/h1008.4 hPa0.0 mm0.0 mm/hbedeckt
10.05.2026 - 11.50Uhr17.8 °C10.7 °C63 %422.0 W/m²9.8 km/hWesten14.4 km/h1008.4 hPa0.0 mm0.0 mm/hbedeckt
10.05.2026 - 11.55Uhr17.8 °C10.7 °C63 %548.0 W/m²9.3 km/hWesten16.2 km/h1008.3 hPa0.0 mm0.0 mm/hbedeckt
10.05.2026 - 12.00Uhr17.9 °C11.1 °C64 %462.0 W/m²8.6 km/hWesten14.4 km/h1008.3 hPa0.0 mm0.0 mm/hbedeckt
10.05.2026 - 12.05Uhr18.0 °C11.1 °C64 %434.0 W/m²8.1 km/hWest-NW13.0 km/h1008.3 hPa0.0 mm0.0 mm/hbedeckt
10.05.2026 - 12.10Uhr18.0 °C11.2 °C64 %425.0 W/m²8.0 km/hNordwesten11.2 km/h1008.2 hPa0.0 mm0.0 mm/hbedeckt
10.05.2026 - 12.15Uhr18.1 °C11.2 °C64 %694.0 W/m²8.0 km/hNordwesten13.0 km/h1008.1 hPa0.0 mm0.0 mm/hbedeckt
10.05.2026 - 12.20Uhr18.1 °C10.8 °C62 %621.0 W/m²7.5 km/hWest-NW13.0 km/h1008.1 hPa0.0 mm0.0 mm/hbedeckt
10.05.2026 - 12.25Uhr18.1 °C10.9 °C63 %661.0 W/m²9.8 km/hWest-NW16.2 km/h1008.0 hPa0.0 mm0.0 mm/hbedeckt
10.05.2026 - 12.30Uhr18.1 °C10.9 °C63 %638.0 W/m²10.6 km/hNordwesten16.2 km/h1008.0 hPa0.0 mm0.0 mm/hbedeckt
10.05.2026 - 12.35Uhr18.3 °C11.0 °C63 %455.0 W/m²8.1 km/hSüdwesten13.0 km/h1008.0 hPa0.0 mm0.0 mm/hbedeckt
10.05.2026 - 12.40Uhr18.3 °C11.2 °C64 %399.0 W/m²10.6 km/hWesten16.2 km/h1008.0 hPa0.0 mm0.0 mm/hbedeckt
10.05.2026 - 12.45Uhr18.3 °C11.5 °C64 %383.0 W/m²10.6 km/hWest-NW16.2 km/h1007.9 hPa0.0 mm0.0 mm/hbedeckt
10.05.2026 - 12.50Uhr18.2 °C11.3 °C64 %362.0 W/m²9.1 km/hWesten13.0 km/h1007.9 hPa0.0 mm0.0 mm/hbedeckt
10.05.2026 - 12.55Uhr18.1 °C11.4 °C65 %330.0 W/m²7.4 km/hWesten13.0 km/h1007.8 hPa0.0 mm0.0 mm/hbedeckt
10.05.2026 - 13.00Uhr18.1 °C11.7 °C66 %290.0 W/m²6.9 km/hWesten11.2 km/h1007.8 hPa0.0 mm0.0 mm/hbedeckt
10.05.2026 - 13.05Uhr18.1 °C11.8 °C66 %281.0 W/m²5.9 km/hWesten9.7 km/h1007.8 hPa0.0 mm0.0 mm/hRegen
10.05.2026 - 13.10Uhr18.1 °C12.0 °C67 %306.0 W/m²8.6 km/hWesten13.0 km/h1007.8 hPa0.0 mm0.0 mm/hRegen
10.05.2026 - 13.15Uhr18.1 °C11.7 °C66 %341.0 W/m²7.6 km/hWesten11.2 km/h1007.8 hPa0.0 mm0.0 mm/hRegen
10.05.2026 - 13.20Uhr18.1 °C11.8 °C67 %388.0 W/m²8.0 km/hWesten13.0 km/h1007.8 hPa0.0 mm0.0 mm/hRegen
10.05.2026 - 13.25Uhr18.1 °C11.6 °C66 %434.0 W/m²9.1 km/hWesten13.0 km/h1007.7 hPa0.0 mm0.0 mm/hRegen
10.05.2026 - 13.30Uhr18.0 °C11.5 °C66 %448.0 W/m²9.9 km/hWesten16.2 km/h1007.6 hPa0.0 mm0.0 mm/hRegen
10.05.2026 - 13.35Uhr18.1 °C11.6 °C66 %473.0 W/m²11.0 km/hWest-NW14.4 km/h1007.6 hPa0.0 mm0.0 mm/hRegen
10.05.2026 - 13.40Uhr18.2 °C11.8 °C66 %504.0 W/m²10.9 km/hNordwesten17.6 km/h1007.5 hPa0.0 mm0.0 mm/hRegen
10.05.2026 - 13.45Uhr18.2 °C11.7 °C66 %531.0 W/m²10.5 km/hNordwesten14.4 km/h1007.5 hPa0.0 mm0.0 mm/hRegen
10.05.2026 - 13.50Uhr18.2 °C11.8 °C66 %589.0 W/m²8.4 km/hWesten14.4 km/h1007.5 hPa0.0 mm0.0 mm/hRegen
10.05.2026 - 13.55Uhr18.3 °C11.9 °C66 %606.0 W/m²10.8 km/hNordwesten16.2 km/h1007.5 hPa0.0 mm0.0 mm/hRegen
10.05.2026 - 14.00Uhr18.5 °C11.9 °C65 %561.0 W/m²9.2 km/hWesten14.4 km/h1007.5 hPa0.0 mm0.0 mm/hRegen
10.05.2026 - 14.05Uhr18.5 °C11.9 °C65 %555.0 W/m²7.5 km/hWest-NW11.2 km/h1007.5 hPa0.0 mm0.0 mm/hbedeckt
10.05.2026 - 14.10Uhr18.5 °C12.1 °C66 %538.0 W/m²10.2 km/hNordwesten16.2 km/h1007.4 hPa0.0 mm0.0 mm/hbedeckt
10.05.2026 - 14.15Uhr18.6 °C12.0 °C65 %469.0 W/m²10.1 km/hNordwesten16.2 km/h1007.3 hPa0.0 mm0.0 mm/hbedeckt
10.05.2026 - 14.20Uhr18.6 °C12.1 °C66 %415.0 W/m²10.9 km/hNordwesten16.2 km/h1007.3 hPa0.0 mm0.0 mm/hbedeckt